Time;durP1;ratioP1;P1;durP2;ratioP2;P2;SDS_P1;SDS_P2;PMS_P1;PMS_P2;Temp;Humidity;BMP_temperature;BMP_pressure;BME280_temperature;BME280_humidity;BME280_pressure;Samples;Min_cycle;Max_cycle;Signal;HPM_P1;HPM_P2
2022/01/19 04:26:23;;;;;;;;;;;;;;;3.05;95.10;100815.94;4951055;28;20301;-87
2022/01/19 04:28:50;;;;;;;;;;;;;;;2.95;94.81;100813.25;4961947;28;19922;-84
2022/01/19 04:31:15;;;;;;;;;;;;;;;2.92;94.66;100819.38;4938704;29;20328;-85
2022/01/19 04:33:43;;;;;;;;;;;;;;;2.88;94.64;100818.47;4956054;28;19925;-85
2022/01/19 04:36:27;;;;;;;;;;;;;;;2.81;94.22;100816.69;4954572;29;20402;-84
2022/01/19 04:44:56;;;;;;;;;;;;;;;2.70;93.67;100821.88;4955857;29;19965;-84
2022/01/19 05:04:18;;;;;;;;;;;;;;;2.43;91.82;100804.25;4955388;29;20444;-84
2022/01/19 05:06:47;;;;;;;;;;;;;;;2.34;91.53;100805.06;4954619;29;19926;-83
2022/01/19 05:09:50;;;;;;;;;;;;;;;2.34;91.43;100791.97;4953944;29;19918;-83
2022/01/19 05:14:53;;;;;;;;;;;;;;;2.28;90.74;100788.44;4955341;29;19925;-84
2022/01/19 05:17:19;;;;;;;;;;;;;;;2.28;90.23;100788.44;4955123;29;19922;-84
2022/01/19 05:19:44;;;;;;;;;;;;;;;2.22;89.71;100789.28;4955089;29;19919;-84
2022/01/19 05:22:09;;;;;;;;;;;;;;;2.14;89.33;100788.38;4955245;29;19929;-83
2022/01/19 05:24:34;;;;;;;;;;;;;;;2.13;88.97;100799.69;4953764;29;19918;-84
2022/01/19 05:26:59;;;;;;;;;;;;;;;2.11;88.66;100785.72;4954745;29;19925;-84
2022/01/19 05:29:25;;;;;;;;;;;;;;;2.08;88.27;100791.78;4954931;29;19976;-84
2022/01/19 05:31:50;;;;;;;;;;;;;;;2.05;87.92;100793.50;4954800;29;19929;-85
2022/01/19 05:34:15;;;;;;;;;;;;;;;1.98;87.52;100785.63;4954766;29;19922;-85
2022/01/19 08:48:40;;;;;;;;;;;;;;;0.93;80.92;100709.72;4974075;28;19980;-89
2022/01/19 08:51:05;;;;;;;;;;;;;;;0.95;80.86;100708.88;4957552;28;19958;-88
2022/01/19 08:53:31;;;;;;;;;;;;;;;0.93;80.92;100705.38;4972876;28;20022;-88
2022/01/19 08:56:15;;;;;;;;;;;;;;;0.89;80.82;100703.59;4973241;28;20016;-88
2022/01/19 08:58:41;;;;;;;;;;;;;;;0.84;80.62;100703.53;4956790;28;19981;-90
2022/01/19 09:01:06;;;;;;;;;;;;;;;0.85;80.52;100700.06;4956166;28;19930;-88
2022/01/19 09:03:31;;;;;;;;;;;;;;;0.87;80.37;100705.31;4972898;28;19918;-88
2022/01/19 09:05:59;;;;;;;;;;;;;;;0.81;80.27;100700.88;4974524;28;20321;-88
2022/01/19 09:08:24;;;;;;;;;;;;;;;0.88;80.24;100702.72;4973507;28;19922;-88
2022/01/19 09:10:52;;;;;;;;;;;;;;;0.91;80.27;100701.88;4974450;28;20020;-88
2022/01/19 09:13:18;;;;;;;;;;;;;;;0.85;80.06;100702.69;4973300;28;20001;-89
2022/01/19 09:15:43;;;;;;;;;;;;;;;0.85;80.13;100699.19;4972077;28;20021;-88
2022/01/19 09:18:08;;;;;;;;;;;;;;;0.85;80.04;100697.47;4973120;28;19937;-89
2022/01/19 09:20:34;;;;;;;;;;;;;;;0.84;79.61;100695.69;4974240;28;19926;-89
2022/01/19 09:22:59;;;;;;;;;;;;;;;0.87;79.56;100685.28;4974176;28;20373;-89
2022/01/19 09:25:25;;;;;;;;;;;;;;;0.90;79.56;100682.72;4974204;28;19926;-88
2022/01/19 09:27:53;;;;;;;;;;;;;;;0.88;79.59;100676.63;4972882;28;19934;-89
2022/01/19 09:30:21;;;;;;;;;;;;;;;0.98;79.55;100685.41;4972965;28;19961;-89
2022/01/19 09:32:54;;;;;;;;;;;;;;;0.97;79.52;100680.19;4973608;28;20005;-89
2022/01/19 09:35:24;;;;;;;;;;;;;;;0.93;79.35;100667.97;4974102;28;19953;-89
2022/01/19 09:37:54;;;;;;;;;;;;;;;0.94;79.31;100669.72;4972703;28;20012;-88
2022/01/19 09:40:22;;;;;;;;;;;;;;;0.92;79.05;100668.81;4956521;28;19922;-89
2022/01/19 09:42:50;;;;;;;;;;;;;;;0.94;79.07;100674.94;4971353;28;19922;-89
2022/01/19 09:45:15;;;;;;;;;;;;;;;0.97;78.84;100664.53;4970151;28;19984;-89
2022/01/19 09:47:40;;;;;;;;;;;;;;;0.96;78.84;100673.19;4971288;28;20412;-88
2022/01/19 09:50:06;;;;;;;;;;;;;;;1.03;78.76;100670.66;4971202;28;20601;-89
2022/01/19 09:52:31;;;;;;;;;;;;;;;0.97;78.62;100665.38;4970994;28;19994;-88
2022/01/19 09:54:57;;;;;;;;;;;;;;;1.05;78.51;100661.16;4970402;28;20319;-89
2022/01/19 09:57:24;;;;;;;;;;;;;;;1.03;78.42;100651.53;4971332;28;19918;-88
2022/01/19 09:59:59;;;;;;;;;;;;;;;1.05;78.20;100657.63;4969777;28;19949;-87
2022/01/19 10:02:27;;;;;;;;;;;;;;;1.07;78.08;100666.38;4971027;28;20297;-88
2022/01/19 10:04:55;;;;;;;;;;;;;;;1.11;78.00;100660.31;4970941;28;19925;-88
2022/01/19 10:07:24;;;;;;;;;;;;;;;1.10;78.09;100666.38;4975030;28;19917;-88
2022/01/19 10:09:56;;;;;;;;;;;;;;;1.12;78.06;100677.75;4983139;28;20373;-89
2022/01/19 10:17:54;;;;;;;;;;;;;;;1.17;77.99;100678.66;4992839;28;19924;-88
2022/01/19 10:20:20;;;;;;;;;;;;;;;1.14;77.89;100683.84;5007436;28;19924;-88
2022/01/19 10:22:45;;;;;;;;;;;;;;;1.18;77.76;100674.28;4983377;28;19918;-89
2022/01/19 10:25:13;;;;;;;;;;;;;;;1.19;77.54;100673.44;5007673;28;19925;-89
2022/01/19 10:27:42;;;;;;;;;;;;;;;1.22;78.05;100671.72;4992128;28;19922;-88
2022/01/19 10:30:08;;;;;;;;;;;;;;;1.23;78.56;100673.50;4974213;28;20274;-89
2022/01/19 10:32:41;;;;;;;;;;;;;;;1.22;78.34;100668.25;4992648;28;19929;-89
2022/01/19 10:35:14;;;;;;;;;;;;;;;1.21;77.88;100670.00;4975088;28;19924;-88
2022/01/19 10:37:39;;;;;;;;;;;;;;;1.18;77.49;100664.75;4991844;28;19922;-89
2022/01/19 10:40:05;;;;;;;;;;;;;;;1.21;77.12;100670.00;4975026;28;20391;-86
2022/01/19 10:42:32;;;;;;;;;;;;;;;1.27;76.91;100664.81;4975277;28;19925;-88
2022/01/19 10:45:05;;;;;;;;;;;;;;;1.22;76.46;100657.81;4991160;28;19918;-88
2022/01/19 10:47:48;;;;;;;;;;;;;;;1.29;76.26;100650.91;4992485;28;19969;-89
2022/01/19 10:50:15;;;;;;;;;;;;;;;1.26;75.84;100638.69;4974854;28;19922;-89
2022/01/19 10:52:41;;;;;;;;;;;;;;;1.29;75.86;100635.22;4990412;28;19922;-88
2022/01/19 10:55:11;;;;;;;;;;;;;;;1.30;75.66;100631.78;4992097;28;19980;-89
2022/01/19 10:57:37;;;;;;;;;;;;;;;1.30;75.62;100634.38;4992454;28;19918;-88
2022/01/19 11:00:16;;;;;;;;;;;;;;;1.32;75.56;100635.25;4973603;28;19922;-88
2022/01/19 11:02:44;;;;;;;;;;;;;;;1.30;75.43;100637.84;4991361;28;19976;-88
2022/01/19 11:05:10;;;;;;;;;;;;;;;1.32;75.38;100636.13;4996339;28;19924;-88
2022/01/19 11:07:38;;;;;;;;;;;;;;;1.34;75.47;100641.38;4978866;28;19922;-88
2022/01/19 11:10:17;;;;;;;;;;;;;;;1.32;75.19;100640.50;4978136;28;19925;-88
2022/01/19 11:12:56;;;;;;;;;;;;;;;1.35;75.39;100630.06;4995575;28;19922;-88
2022/01/19 11:15:21;;;;;;;;;;;;;;;1.36;75.04;100624.84;4994735;28;20292;-88
2022/01/19 11:17:47;;;;;;;;;;;;;;;1.38;75.17;100620.50;4996108;28;19922;-88
2022/01/19 11:20:14;;;;;;;;;;;;;;;1.43;74.91;100624.03;4996019;28;19981;-88
2022/01/19 11:22:41;;;;;;;;;;;;;;;1.42;74.95;100608.34;4996115;28;19918;-88
2022/01/19 11:25:14;;;;;;;;;;;;;;;1.42;74.85;100616.19;4995739;28;19924;-89
2022/01/19 11:27:43;;;;;;;;;;;;;;;1.41;74.62;100619.69;4995881;28;19918;-87
2022/01/19 11:30:11;;;;;;;;;;;;;;;1.46;74.78;100610.13;4976741;28;20019;-87
2022/01/19 11:32:39;;;;;;;;;;;;;;;1.48;74.86;100607.53;4978415;28;19925;-88
2022/01/19 11:35:06;;;;;;;;;;;;;;;1.49;74.69;100598.84;4977617;28;19933;-88
2022/01/19 11:37:31;;;;;;;;;;;;;;;1.44;74.53;100590.97;4995630;28;20436;-88
2022/01/19 11:40:03;;;;;;;;;;;;;;;1.53;74.45;100593.66;4978256;28;20012;-87
2022/01/19 11:42:31;;;;;;;;;;;;;;;1.53;74.12;100591.03;4977888;28;20025;-88
2022/01/19 11:45:03;;;;;;;;;;;;;;;1.54;74.18;100594.53;4933572;29;20378;-89
2022/01/19 11:47:30;;;;;;;;;;;;;;;1.59;74.17;100579.75;4945134;28;19926;-88
2022/01/19 11:49:59;;;;;;;;;;;;;;;1.61;73.92;100575.38;4938477;29;19945;-89
2022/01/19 11:52:35;;;;;;;;;;;;;;;1.62;73.70;100572.78;4953684;28;19985;-88
2022/01/19 11:55:16;;;;;;;;;;;;;;;1.62;73.37;100570.19;4954065;28;20305;-88
2022/01/19 11:57:45;;;;;;;;;;;;;;;1.65;73.20;100552.78;4954369;28;19919;-89
2022/01/19 12:00:11;;;;;;;;;;;;;;;1.66;73.30;100558.03;4936813;28;19922;-88
2022/01/19 12:02:41;;;;;;;;;;;;;;;1.62;73.04;100551.03;4954367;28;20454;-87
2022/01/19 12:05:09;;;;;;;;;;;;;;;1.59;73.12;100549.25;4937258;29;20270;-89
2022/01/19 12:07:43;;;;;;;;;;;;;;;1.65;73.06;100544.97;4938075;29;19961;-88
2022/01/19 12:10:08;;;;;;;;;;;;;;;1.62;73.07;100531.00;4983845;28;20369;-89
2022/01/19 12:12:43;;;;;;;;;;;;;;;1.67;73.12;100538.84;4993888;28;19918;-89
2022/01/19 12:15:31;;;;;;;;;;;;;;;1.71;73.08;100534.50;4991345;28;20353;-88
2022/01/19 12:18:07;;;;;;;;;;;;;;;1.59;72.72;100536.19;4995130;28;19917;-88
2022/01/19 12:20:52;;;;;;;;;;;;;;;1.68;72.96;100531.91;4993762;28;19969;-88
2022/01/19 12:23:30;;;;;;;;;;;;;;;1.65;72.86;100529.28;4993431;28;20338;-88
2022/01/19 12:26:00;;;;;;;;;;;;;;;1.60;72.84;100524.88;4993587;28;19965;-88
2022/01/19 12:28:38;;;;;;;;;;;;;;;1.65;72.92;100517.09;4993478;28;19928;-89
2022/01/19 12:31:21;;;;;;;;;;;;;;;1.65;72.86;100518.84;4993478;28;20000;-89
2022/01/19 12:34:02;;;;;;;;;;;;;;;1.66;72.71;100517.94;4991867;28;19918;-89
2022/01/19 12:36:39;;;;;;;;;;;;;;;3.38;77.06;100509.50;4992113;28;19941;-88
2022/01/19 12:39:23;;;;;;;;;;;;;;;2.68;76.64;100501.72;4992152;28;20497;-92
2022/01/19 12:41:58;;;;;;;;;;;;;;;2.38;76.21;100505.16;4992147;28;19925;-88
2022/01/19 12:44:42;;;;;;;;;;;;;;;2.17;75.67;100492.88;4990656;28;20348;-92
2022/01/19 12:47:29;;;;;;;;;;;;;;;2.13;75.24;100505.06;4974873;28;19921;-92
2022/01/19 12:49:58;;;;;;;;;;;;;;;2.13;75.07;100492.00;4982135;28;19917;-93
2022/01/19 12:52:25;;;;;;;;;;;;;;;2.43;77.62;100476.38;4974328;28;19961;-89
2022/01/19 12:54:52;;;;;;;;;;;;;;;2.71;80.25;100486.00;4983147;28;20012;-89
2022/01/19 12:57:17;;;;;;;;;;;;;;;2.75;82.25;100471.19;4974918;28;20320;-94
2022/01/19 12:59:44;;;;;;;;;;;;;;;2.79;83.92;100482.50;4993177;28;19922;-88
2022/01/19 13:02:12;;;;;;;;;;;;;;;2.76;85.48;100472.03;4993684;28;19918;-93
2022/01/19 13:04:37;;;;;;;;;;;;;;;2.74;87.00;100469.41;4994944;28;19937;-89
2022/01/19 13:07:15;;;;;;;;;;;;;;;2.71;88.29;100467.69;4994674;28;20432;-91
2022/01/19 13:10:05;;;;;;;;;;;;;;;2.73;89.84;100465.94;4977672;28;19918;-92
2022/01/19 13:12:35;;;;;;;;;;;;;;;2.76;91.32;100459.84;4977564;28;20372;-94
2022/01/19 13:15:04;;;;;;;;;;;;;;;2.75;93.01;100465.06;4976170;28;19918;-89
2022/01/19 13:17:44;;;;;;;;;;;;;;;2.80;95.19;100464.19;4979071;28;20068;-93
2022/01/19 13:20:10;;;;;;;;;;;;;;;3.06;97.87;100461.56;4977464;28;19918;-92
2022/01/19 13:22:43;;;;;;;;;;;;;;;3.30;100.00;100462.38;4977852;28;20262;-93
2022/01/19 13:25:19;;;;;;;;;;;;;;;3.47;100.00;100459.72;4995029;28;19941;-91
2022/01/19 13:27:44;;;;;;;;;;;;;;;3.67;100.00;100451.78;4975393;28;19922;-91
2022/01/19 13:30:13;;;;;;;;;;;;;;;3.76;100.00;100443.88;4975428;28;19925;-94
2022/01/19 13:32:39;;;;;;;;;;;;;;;3.85;100.00;100447.34;4976568;28;20017;-92
2022/01/19 13:35:07;;;;;;;;;;;;;;;3.91;100.00;100442.94;4976406;28;20496;-89
2022/01/19 13:37:34;;;;;;;;;;;;;;;4.01;100.00;100443.75;4975674;28;19925;-91
2022/01/19 13:39:59;;;;;;;;;;;;;;;4.11;100.00;100439.31;4976495;28;19918;-93
2022/01/19 13:42:31;;;;;;;;;;;;;;;4.17;100.00;100440.16;4976381;28;19933;-90
2022/01/19 13:44:58;;;;;;;;;;;;;;;4.25;100.00;100432.25;4975157;28;19922;-93
2022/01/19 13:47:29;;;;;;;;;;;;;;;4.32;100.00;100443.56;4981351;28;19953;-91
2022/01/19 13:49:55;;;;;;;;;;;;;;;4.37;100.00;100447.00;4991735;28;20292;-89
2022/01/19 13:52:24;;;;;;;;;;;;;;;4.40;100.00;100441.75;4993520;28;20013;-93
2022/01/19 13:54:50;;;;;;;;;;;;;;;4.50;100.00;100448.69;4991700;28;20008;-91
2022/01/19 13:57:25;;;;;;;;;;;;;;;4.51;100.00;100450.41;4992296;28;20339;-90
2022/01/19 13:59:50;;;;;;;;;;;;;;;4.55;100.00;100456.53;4991438;28;20373;-92
2022/01/19 14:02:18;;;;;;;;;;;;;;;4.61;100.00;100447.72;4992392;28;19929;-92
2022/01/19 14:04:51;;;;;;;;;;;;;;;4.64;100.00;100453.84;4993708;28;19918;-93
2022/01/19 14:07:17;;;;;;;;;;;;;;;4.72;100.00;100445.88;4991754;28;20289;-93
2022/01/19 14:09:43;;;;;;;;;;;;;;;4.78;100.00;100442.34;4993323;28;19993;-90
2022/01/19 14:12:13;;;;;;;;;;;;;;;4.79;100.00;100444.09;4991898;28;19924;-90
2022/01/19 14:15:04;;;;;;;;;;;;;;;4.84;100.00;100445.78;4991708;28;19929;-95
2022/01/19 14:17:31;;;;;;;;;;;;;;;4.90;100.00;100435.22;4987434;28;19940;-92
2022/01/19 14:19:58;;;;;;;;;;;;;;;4.95;100.00;100423.81;4992367;28;19968;-90
2022/01/19 14:22:23;;;;;;;;;;;;;;;5.00;100.00;100427.28;5007905;28;20455;-90
2022/01/19 14:24:50;;;;;;;;;;;;;;;5.02;100.00;100438.63;4991782;28;20008;-91
2022/01/19 14:27:15;;;;;;;;;;;;;;;4.77;100.00;100440.59;4991815;28;20024;-91
2022/01/19 14:30:02;;;;;;;;;;;;;;;3.92;100.00;100439.41;4990439;28;20021;-91
2022/01/19 14:32:39;;;;;;;;;;;;;;;3.55;100.00;100430.88;4990944;28;19922;-91
2022/01/19 14:35:19;;;;;;;;;;;;;;;3.40;100.00;100416.94;4991589;28;19929;-90
2022/01/19 14:37:59;;;;;;;;;;;;;;;3.24;100.00;100417.88;4991411;28;19972;-92
2022/01/19 14:40:25;;;;;;;;;;;;;;;3.17;99.24;100421.38;4992414;28;20604;-88
2022/01/19 14:42:51;;;;;;;;;;;;;;;3.08;97.96;100423.16;4992830;28;19922;-89
2022/01/19 14:45:22;;;;;;;;;;;;;;;3.01;97.07;100425.78;4989167;28;19918;-89
2022/01/19 14:47:47;;;;;;;;;;;;;;;2.96;96.52;100428.41;4991339;28;19922;-89
2022/01/19 14:50:17;;;;;;;;;;;;;;;2.91;95.89;100425.78;4992523;28;19924;-89
2022/01/19 14:52:42;;;;;;;;;;;;;;;2.80;95.44;100414.44;4991533;28;19921;-94
2022/01/19 14:55:07;;;;;;;;;;;;;;;2.75;95.16;100412.72;4991268;28;20328;-93
2022/01/19 14:57:35;;;;;;;;;;;;;;;2.75;94.80;100412.72;4993168;28;19928;-90
2022/01/19 15:00:05;;;;;;;;;;;;;;;2.72;94.22;100405.75;4989873;28;22972;-91
2022/01/19 15:02:31;;;;;;;;;;;;;;;2.66;93.74;100404.00;4991421;28;20065;-91
2022/01/19 15:04:56;;;;;;;;;;;;;;;2.62;93.25;100401.41;4991403;28;20005;-92
2022/01/19 15:07:21;;;;;;;;;;;;;;;2.56;92.99;100404.00;4991491;28;20389;-92
2022/01/19 15:09:47;;;;;;;;;;;;;;;2.52;92.53;100393.56;4992669;28;19964;-92
2022/01/19 15:12:12;;;;;;;;;;;;;;;2.48;92.21;100396.16;4992609;28;19918;-91
2022/01/19 15:14:39;;;;;;;;;;;;;;;2.50;91.80;100397.03;4989846;28;19924;-91
2022/01/19 15:17:08;;;;;;;;;;;;;;;2.51;91.41;100390.94;4991441;28;19922;-90
2022/01/19 15:19:33;;;;;;;;;;;;;;;2.47;90.92;100382.22;4991164;28;19917;-89
2022/01/19 15:21:59;;;;;;;;;;;;;;;2.41;90.67;100387.44;4992713;28;19972;-91
2022/01/19 15:24:24;;;;;;;;;;;;;;;2.34;90.46;100385.69;4994505;28;20756;-93
2022/01/19 15:26:49;;;;;;;;;;;;;;;2.32;90.20;100390.06;4992311;28;19922;-94
2022/01/19 15:29:14;;;;;;;;;;;;;;;2.33;89.97;100404.84;4991838;28;19929;-91
2022/01/19 15:31:40;;;;;;;;;;;;;;;2.31;89.55;100396.16;4992926;28;20012;-90
2022/01/19 15:34:05;;;;;;;;;;;;;;;2.26;89.42;100397.91;4992695;28;20013;-94
2022/01/19 15:36:30;;;;;;;;;;;;;;;2.22;89.20;100390.91;4988652;28;20377;-89
2022/01/19 15:38:57;;;;;;;;;;;;;;;2.24;89.10;100390.03;4990986;28;19933;-94
2022/01/19 15:41:23;;;;;;;;;;;;;;;2.19;88.77;100397.03;4993791;28;19949;-94
2022/01/19 15:43:48;;;;;;;;;;;;;;;2.14;88.43;100396.16;4994577;28;20300;-92
2022/01/19 15:46:15;;;;;;;;;;;;;;;2.09;88.17;100395.25;4993421;28;19924;-94
2022/01/19 15:48:40;;;;;;;;;;;;;;;2.09;87.93;100395.25;4989075;28;19922;-95
2022/01/19 15:51:06;;;;;;;;;;;;;;;2.05;87.70;100393.53;4995948;28;19921;-92
2022/01/19 15:53:31;;;;;;;;;;;;;;;2.02;87.39;100398.75;4995336;28;19964;-93
2022/01/19 15:55:59;;;;;;;;;;;;;;;1.99;87.06;100403.09;5011808;28;19922;-94
2022/01/19 15:58:24;;;;;;;;;;;;;;;1.98;87.28;100403.97;4997302;28;19918;-90
2022/01/19 16:00:50;;;;;;;;;;;;;;;2.00;87.13;100406.56;4995251;28;19922;-92
2022/01/19 16:03:17;;;;;;;;;;;;;;;1.95;87.06;100406.56;4996465;28;19922;-90
2022/01/19 16:05:42;;;;;;;;;;;;;;;1.90;86.72;100404.78;4998708;28;20089;-93
2022/01/19 16:08:08;;;;;;;;;;;;;;;1.87;86.75;100403.06;4995669;28;19918;-90
2022/01/19 16:10:33;;;;;;;;;;;;;;;1.89;86.56;100401.31;4993523;28;20316;-95
2022/01/19 16:12:59;;;;;;;;;;;;;;;1.89;86.45;100398.69;4997444;28;19925;-93
2022/01/19 16:15:24;;;;;;;;;;;;;;;1.88;86.41;100396.94;4997708;28;19922;-93
2022/01/19 16:17:49;;;;;;;;;;;;;;;1.82;86.42;100394.34;4999156;28;19921;-94
2022/01/19 16:20:16;;;;;;;;;;;;;;;1.81;86.31;100400.44;4997440;28;19922;-92
2022/01/19 16:28:09;;;;;;;;;;;;;;;1.77;86.37;100404.78;4998222;28;20003;-89
2022/01/19 16:30:37;;;;;;;;;;;;;;;1.81;86.33;100398.69;4996045;28;20000;-93
2022/01/19 16:33:02;;;;;;;;;;;;;;;1.73;86.13;100402.16;4995955;28;19918;-93
2022/01/19 16:35:28;;;;;;;;;;;;;;;1.73;86.12;100392.56;4994565;28;19925;-92
2022/01/19 16:37:53;;;;;;;;;;;;;;;1.71;86.20;100399.53;4994195;28;20353;-94
2022/01/19 16:40:18;;;;;;;;;;;;;;;1.67;86.14;100399.53;4994424;28;19925;-91
2022/01/19 16:42:44;;;;;;;;;;;;;;;1.70;86.09;100399.53;4995782;28;19922;-91
2022/01/19 16:45:09;;;;;;;;;;;;;;;1.69;85.97;100405.63;4994052;28;19922;-92
2022/01/19 16:47:42;;;;;;;;;;;;;;;1.73;85.97;100407.38;4994922;28;19948;-92
2022/01/19 16:50:07;;;;;;;;;;;;;;;1.63;85.65;100407.34;4994780;28;19921;-93
2022/01/19 16:52:33;;;;;;;;;;;;;;;1.66;85.77;100411.72;4995377;28;19925;-90
2022/01/19 16:54:58;;;;;;;;;;;;;;;1.62;85.79;100409.94;4995551;28;20476;-89
2022/01/19 16:57:23;;;;;;;;;;;;;;;1.60;85.75;100412.56;4977236;28;19965;-91
2022/01/19 16:59:50;;;;;;;;;;;;;;;1.57;85.57;100409.94;4993411;28;19968;-89
2022/01/19 17:02:15;;;;;;;;;;;;;;;1.55;85.37;100409.06;4976075;28;20428;-92
2022/01/19 17:04:40;;;;;;;;;;;;;;;1.55;85.22;100397.75;4977782;28;19922;-91
2022/01/19 17:07:06;;;;;;;;;;;;;;;1.53;85.09;100389.00;4994986;28;19918;-90
2022/01/19 17:09:31;;;;;;;;;;;;;;;1.54;85.06;100391.63;4995111;28;19917;-92
2022/01/19 17:12:00;;;;;;;;;;;;;;;1.53;84.91;100400.34;4977229;28;19922;-93
2022/01/19 17:14:33;;;;;;;;;;;;;;;1.52;84.74;100401.22;4976922;28;19925;-93
2022/01/19 17:17:06;;;;;;;;;;;;;;;1.49;84.86;100400.34;4993582;28;19918;-89
2022/01/19 17:19:37;;;;;;;;;;;;;;;1.48;84.68;100395.97;4993624;28;19957;-90
2022/01/19 17:22:02;;;;;;;;;;;;;;;1.47;84.67;100400.31;4993936;28;19941;-91
2022/01/19 17:24:27;;;;;;;;;;;;;;;1.47;84.68;100405.56;4994454;28;19918;-90
2022/01/19 17:26:54;;;;;;;;;;;;;;;1.48;84.77;100398.56;4976740;28;19918;-90
2022/01/19 17:29:19;;;;;;;;;;;;;;;1.47;84.65;100399.44;4993402;28;20027;-89
2022/01/19 17:31:45;;;;;;;;;;;;;;;1.46;84.85;100403.78;4992673;28;19921;-89
2022/01/19 17:34:10;;;;;;;;;;;;;;;1.40;84.69;100396.78;4976548;28;19922;-88
2022/01/19 17:36:36;;;;;;;;;;;;;;;1.42;84.75;100402.03;4976279;28;19924;-88
2022/01/19 17:39:02;;;;;;;;;;;;;;;1.38;84.62;100398.53;4993556;28;19921;-88
2022/01/19 17:41:27;;;;;;;;;;;;;;;1.40;84.35;100406.38;4993590;28;19922;-90
2022/01/19 17:43:53;;;;;;;;;;;;;;;1.37;84.29;100408.97;4993274;28;19922;-90
2022/01/19 17:46:28;;;;;;;;;;;;;;;1.36;84.22;100420.31;4992011;28;19917;-87
2022/01/19 17:49:07;;;;;;;;;;;;;;;1.39;84.48;100413.34;4975449;28;19921;-87
2022/01/19 17:53:58;;;;;;;;;;;;;;;1.37;84.39;100416.81;4993375;28;20353;-89
2022/01/19 17:56:24;;;;;;;;;;;;;;;1.38;84.46;100410.72;4993530;28;19930;-89
2022/01/19 17:58:49;;;;;;;;;;;;;;;1.37;84.37;100419.41;4993379;28;19980;-90
2022/01/19 18:01:15;;;;;;;;;;;;;;;1.39;84.36;100415.09;4975124;28;20285;-88
2022/01/19 18:03:40;;;;;;;;;;;;;;;1.36;84.39;100396.81;4993174;28;19925;-91
2022/01/19 18:06:06;;;;;;;;;;;;;;;1.39;84.55;100407.25;4993396;28;19917;-90
2022/01/19 18:08:31;;;;;;;;;;;;;;;1.35;84.73;100427.25;4973085;28;20395;-87
2022/01/19 18:10:56;;;;;;;;;;;;;;;1.36;84.62;100422.91;4991285;28;20912;-89
2022/01/19 18:13:21;;;;;;;;;;;;;;;1.33;84.43;100412.44;4992512;28;19925;-89
2022/01/19 18:15:47;;;;;;;;;;;;;;;1.34;84.22;100420.28;4992285;28;20296;-88
2022/01/19 18:18:12;;;;;;;;;;;;;;;1.34;83.92;100422.91;4992403;28;19918;-90
2022/01/19 18:20:37;;;;;;;;;;;;;;;1.34;83.91;100415.06;4976456;28;19922;-92
2022/01/19 18:23:02;;;;;;;;;;;;;;;1.30;83.81;100418.53;4975596;28;20444;-88
2022/01/19 18:25:28;;;;;;;;;;;;;;;1.33;83.85;100407.22;4975556;28;20016;-87
2022/01/19 18:27:53;;;;;;;;;;;;;;;1.35;83.88;100415.94;4974575;28;19937;-89
2022/01/19 18:30:19;;;;;;;;;;;;;;;1.32;83.84;100413.31;4992389;28;19953;-88
2022/01/19 18:32:45;;;;;;;;;;;;;;;1.29;83.58;100408.06;4976397;28;19921;-89
2022/01/19 18:35:10;;;;;;;;;;;;;;;1.30;83.32;100415.03;4993360;28;19941;-89
2022/01/19 18:37:40;;;;;;;;;;;;;;;1.30;83.37;100418.53;4993158;28;19926;-88
2022/01/19 18:40:06;;;;;;;;;;;;;;;1.30;83.26;100418.53;4993107;28;20000;-89
2022/01/19 18:42:32;;;;;;;;;;;;;;;1.31;83.32;100416.78;4975649;28;20005;-88
2022/01/19 18:44:57;;;;;;;;;;;;;;;1.31;83.31;100424.59;4991503;28;20347;-88
2022/01/19 18:47:22;;;;;;;;;;;;;;;1.32;83.54;100422.00;4981479;28;19922;-87
2022/01/19 18:49:47;;;;;;;;;;;;;;;1.36;83.49;100420.31;4991526;28;19929;-88
2022/01/19 18:52:14;;;;;;;;;;;;;;;1.29;83.50;100421.97;4992551;28;19914;-87
2022/01/19 18:54:39;;;;;;;;;;;;;;;1.31;83.58;100422.88;4992131;28;20289;-87
2022/01/19 18:57:05;;;;;;;;;;;;;;;1.32;83.51;100411.56;4992810;28;19926;-88
2022/01/19 18:59:30;;;;;;;;;;;;;;;1.30;83.50;100417.66;4990702;28;19937;-91
2022/01/19 19:01:56;;;;;;;;;;;;;;;1.29;83.35;100416.75;4991383;28;19925;-90
2022/01/19 19:04:21;;;;;;;;;;;;;;;1.31;83.39;100420.28;4991725;28;19962;-89
2022/01/19 19:06:47;;;;;;;;;;;;;;;1.38;83.32;100408.97;4991549;28;20366;-86
2022/01/19 19:09:20;;;;;;;;;;;;;;;1.36;83.34;100412.47;4992754;28;19918;-90
2022/01/19 19:12:16;;;;;;;;;;;;;;;1.36;83.10;100413.31;4992976;28;20273;-87
2022/01/19 19:14:41;;;;;;;;;;;;;;;1.33;83.13;100412.44;4991176;28;20075;-86
2022/01/19 19:17:06;;;;;;;;;;;;;;;1.35;82.99;100415.94;4992531;28;20061;-91
2022/01/19 19:19:32;;;;;;;;;;;;;;;1.34;83.01;100409.84;4992565;28;19977;-87
2022/01/19 19:21:58;;;;;;;;;;;;;;;1.35;82.98;100410.72;4991577;28;19961;-91
2022/01/19 19:24:23;;;;;;;;;;;;;;;1.30;82.92;100405.47;4991370;28;20257;-89
2022/01/19 19:26:52;;;;;;;;;;;;;;;1.34;82.84;100406.34;4995915;28;19922;-92
2022/01/19 19:29:17;;;;;;;;;;;;;;;1.32;82.74;100418.53;4996058;28;19941;-89
2022/01/19 19:31:43;;;;;;;;;;;;;;;1.35;82.81;100411.56;4992857;28;20377;-87
2022/01/19 19:34:08;;;;;;;;;;;;;;;1.35;82.61;100421.16;4996064;28;19918;-91
2022/01/19 19:36:33;;;;;;;;;;;;;;;1.31;82.25;100419.38;4994088;28;19922;-89
2022/01/19 19:38:59;;;;;;;;;;;;;;;1.36;82.32;100415.06;4994925;28;19984;-91
2022/01/19 19:41:24;;;;;;;;;;;;;;;1.32;82.33;100410.69;4994135;28;19922;-91
2022/01/19 19:43:53;;;;;;;;;;;;;;;1.37;82.13;100406.34;4993909;28;20328;-88
2022/01/19 19:46:19;;;;;;;;;;;;;;;1.32;82.00;100410.69;4992467;28;19917;-89
2022/01/19 19:48:44;;;;;;;;;;;;;;;1.33;81.82;100404.63;4996366;28;19928;-91
2022/01/19 19:51:09;;;;;;;;;;;;;;;1.33;81.79;100404.63;4995548;28;19921;-91
2022/01/19 19:53:34;;;;;;;;;;;;;;;1.35;81.69;100401.13;4995971;28;19985;-88
2022/01/19 19:56:00;;;;;;;;;;;;;;;1.35;81.66;100398.50;4977529;28;19925;-91
2022/01/19 19:58:26;;;;;;;;;;;;;;;1.36;81.48;100404.63;4994410;28;20381;-88
2022/01/19 20:00:51;;;;;;;;;;;;;;;1.35;81.45;100410.72;4994513;28;19928;-91
2022/01/19 20:03:17;;;;;;;;;;;;;;;1.36;81.17;100409.84;4977578;28;19925;-89
2022/01/19 20:05:42;;;;;;;;;;;;;;;1.39;81.01;100412.47;4977635;28;19922;-89
2022/01/19 20:08:08;;;;;;;;;;;;;;;1.47;81.21;100409.88;4977307;28;20308;-88
2022/01/19 20:10:35;;;;;;;;;;;;;;;1.42;80.96;100407.25;4977387;28;20348;-90
2022/01/19 20:13:01;;;;;;;;;;;;;;;1.41;80.94;100400.28;4976996;28;19922;-89
2022/01/19 20:15:26;;;;;;;;;;;;;;;1.39;80.76;100407.25;4993546;28;20304;-90
2022/01/19 20:17:53;;;;;;;;;;;;;;;1.40;80.70;100406.38;4978034;28;19917;-90
2022/01/19 20:20:19;;;;;;;;;;;;;;;1.41;80.71;100402.91;4977714;28;19918;-89
2022/01/19 20:22:44;;;;;;;;;;;;;;;1.47;80.28;100407.25;4977429;28;19921;-90
2022/01/19 20:25:09;;;;;;;;;;;;;;;1.44;80.19;100397.69;4994551;28;19921;-89
2022/01/19 20:27:35;;;;;;;;;;;;;;;1.47;79.88;100399.44;4977598;28;20016;-90
2022/01/19 20:30:04;;;;;;;;;;;;;;;1.44;79.82;100400.31;4975618;28;20004;-88
2022/01/19 20:32:30;;;;;;;;;;;;;;;1.49;79.81;100401.19;4988785;28;20385;-91
2022/01/19 20:34:57;;;;;;;;;;;;;;;1.46;79.66;100401.19;4993567;28;19930;-88
2022/01/19 20:37:22;;;;;;;;;;;;;;;1.49;79.44;100392.50;4974318;28;19918;-88
2022/01/19 20:39:47;;;;;;;;;;;;;;;1.56;79.26;100395.09;4973707;28;20301;-89
2022/01/19 20:42:12;;;;;;;;;;;;;;;1.55;79.21;100398.59;4990642;28;19929;-89
2022/01/19 20:44:38;;;;;;;;;;;;;;;1.55;79.10;100390.78;4973700;28;20354;-89
2022/01/19 20:47:03;;;;;;;;;;;;;;;1.53;79.01;100395.13;4979763;28;19928;-91
2022/01/19 20:49:31;;;;;;;;;;;;;;;1.53;79.06;100395.13;4991246;28;19948;-91
2022/01/19 20:51:56;;;;;;;;;;;;;;;1.61;78.98;100398.63;4993833;28;19922;-90
2022/01/19 20:54:21;;;;;;;;;;;;;;;1.58;78.85;100393.41;4991737;28;20280;-90
2022/01/19 20:56:47;;;;;;;;;;;;;;;1.59;78.80;100397.72;4993307;28;19922;-90
2022/01/19 20:59:12;;;;;;;;;;;;;;;1.59;78.54;100394.25;4992139;28;20385;-90
2022/01/19 21:01:38;;;;;;;;;;;;;;;1.62;78.63;100400.38;4991671;28;19928;-90
2022/01/19 21:04:03;;;;;;;;;;;;;;;1.63;78.72;100403.88;4992492;28;20365;-89
2022/01/19 21:06:29;;;;;;;;;;;;;;;1.66;78.83;100400.38;4992384;28;20381;-89